KEFD

Ellington Airport

Houston, Texas, USA
METAR KEFD 131053Z 13009KT 3SM TSRA BR BKN030CB 18/17 A2976 RMK OCNL LTGICCG W TS VC W MOV NE
Observed Flight Rules
Dec-13 @ 10:53 UTC (29 minutes ago) Marginal Visual Flight Rules
Wind Visibility Clouds Conditions
130° at 9 knots 3 miles
  • Broken at 3,000' AGL
  • Thunderstorm
  • Rain
  • Mist
Temperatures Readings
Current 18°C / 64°F
Dewpoint 17°C / 63°F
Humidity 94%
Altimeter 29.76" Hg
Pressure 1008 hPa
Elevation 10
METAR KEFD 131053Z 13009KT 3SM TSRA BR BKN030CB 18/17 A2976 RMK OCNL LTGICCG W TS VC W MOV NE
Observed Flight Rules
Dec-13 @ 10:53 UTC
(29 minutes ago)
MVFR
Wind Visibility
130° at 9 knots 3 miles
Clouds
  • Broken at 3,000' AGL
Conditions
  • Thunderstorm
  • Rain
  • Mist
Temperature Dewpoint
18°C / 64°F 17°C / 63°F
Humidity Altimeter Pressure
94% 29.76" Hg 1008 hPa